sensor_id;sensor_type;location;lat;lon;timestamp;P1;durP1;ratioP1;P2;durP2;ratioP2
33162;SDS011;29282;45.656;11.302;2023-03-31T00:00:20;5.63;;;3.88;;
33162;SDS011;29282;45.656;11.302;2023-03-31T00:02:45;7.20;;;4.10;;
33162;SDS011;29282;45.656;11.302;2023-03-31T00:05:11;6.60;;;3.67;;
33162;SDS011;29282;45.656;11.302;2023-03-31T00:07:41;4.18;;;3.42;;
33162;SDS011;29282;45.656;11.302;2023-03-31T00:10:08;6.25;;;3.85;;
33162;SDS011;29282;45.656;11.302;2023-03-31T00:12:35;4.82;;;3.53;;
33162;SDS011;29282;45.656;11.302;2023-03-31T00:15:00;6.00;;;4.18;;
33162;SDS011;29282;45.656;11.302;2023-03-31T00:17:26;4.90;;;3.60;;
33162;SDS011;29282;45.656;11.302;2023-03-31T00:19:51;6.93;;;3.78;;
33162;SDS011;29282;45.656;11.302;2023-03-31T00:22:17;7.32;;;3.80;;
33162;SDS011;29282;45.656;11.302;2023-03-31T00:24:46;5.25;;;3.60;;
33162;SDS011;29282;45.656;11.302;2023-03-31T00:27:12;6.93;;;3.95;;
33162;SDS011;29282;45.656;11.302;2023-03-31T00:29:37;4.70;;;3.80;;
33162;SDS011;29282;45.656;11.302;2023-03-31T00:32:08;4.53;;;3.53;;
33162;SDS011;29282;45.656;11.302;2023-03-31T00:34:34;3.92;;;3.13;;
33162;SDS011;29282;45.656;11.302;2023-03-31T00:36:59;7.18;;;3.35;;
33162;SDS011;29282;45.656;11.302;2023-03-31T00:39:26;5.18;;;3.72;;
33162;SDS011;29282;45.656;11.302;2023-03-31T00:41:56;4.18;;;3.58;;
33162;SDS011;29282;45.656;11.302;2023-03-31T00:44:22;4.55;;;3.92;;
33162;SDS011;29282;45.656;11.302;2023-03-31T00:47:05;6.55;;;3.65;;
33162;SDS011;29282;45.656;11.302;2023-03-31T00:49:55;5.00;;;3.70;;
33162;SDS011;29282;45.656;11.302;2023-03-31T00:52:22;4.10;;;3.50;;
33162;SDS011;29282;45.656;11.302;2023-03-31T00:54:58;4.97;;;3.95;;
33162;SDS011;29282;45.656;11.302;2023-03-31T00:57:38;5.35;;;3.97;;
33162;SDS011;29282;45.656;11.302;2023-03-31T01:00:07;5.90;;;3.65;;
33162;SDS011;29282;45.656;11.302;2023-03-31T01:02:41;5.40;;;3.50;;
33162;SDS011;29282;45.656;11.302;2023-03-31T01:05:19;6.13;;;3.60;;
33162;SDS011;29282;45.656;11.302;2023-03-31T01:07:48;4.30;;;3.35;;
33162;SDS011;29282;45.656;11.302;2023-03-31T01:10:16;6.78;;;3.60;;
33162;SDS011;29282;45.656;11.302;2023-03-31T01:12:46;5.80;;;3.60;;
33162;SDS011;29282;45.656;11.302;2023-03-31T01:15:15;4.53;;;3.55;;
33162;SDS011;29282;45.656;11.302;2023-03-31T01:17:41;5.18;;;3.72;;
33162;SDS011;29282;45.656;11.302;2023-03-31T01:32:02;5.47;;;3.88;;
33162;SDS011;29282;45.656;11.302;2023-03-31T01:48:46;5.60;;;3.47;;
33162;SDS011;29282;45.656;11.302;2023-03-31T01:53:59;4.25;;;3.53;;
33162;SDS011;29282;45.656;11.302;2023-03-31T01:56:40;4.45;;;3.47;;
33162;SDS011;29282;45.656;11.302;2023-03-31T01:59:18;5.70;;;3.83;;
33162;SDS011;29282;45.656;11.302;2023-03-31T02:04:17;5.68;;;4.00;;
33162;SDS011;29282;45.656;11.302;2023-03-31T02:06:52;4.97;;;3.70;;
33162;SDS011;29282;45.656;11.302;2023-03-31T02:09:27;4.57;;;3.80;;
33162;SDS011;29282;45.656;11.302;2023-03-31T02:11:57;4.68;;;3.60;;
33162;SDS011;29282;45.656;11.302;2023-03-31T02:14:26;5.90;;;4.00;;
33162;SDS011;29282;45.656;11.302;2023-03-31T02:16:55;6.32;;;3.60;;
33162;SDS011;29282;45.656;11.302;2023-03-31T02:19:24;5.05;;;3.38;;
33162;SDS011;29282;45.656;11.302;2023-03-31T02:21:53;6.95;;;3.88;;
33162;SDS011;29282;45.656;11.302;2023-03-31T02:24:20;5.05;;;4.05;;
33162;SDS011;29282;45.656;11.302;2023-03-31T02:29:18;5.43;;;3.55;;
33162;SDS011;29282;45.656;11.302;2023-03-31T02:34:35;4.32;;;3.47;;
33162;SDS011;29282;45.656;11.302;2023-03-31T02:37:01;5.40;;;3.90;;
33162;SDS011;29282;45.656;11.302;2023-03-31T02:39:29;3.88;;;3.33;;
33162;SDS011;29282;45.656;11.302;2023-03-31T02:41:58;6.07;;;3.60;;
33162;SDS011;29282;45.656;11.302;2023-03-31T02:44:26;4.13;;;3.38;;
33162;SDS011;29282;45.656;11.302;2023-03-31T02:46:52;3.97;;;3.40;;
33162;SDS011;29282;45.656;11.302;2023-03-31T02:49:18;4.35;;;3.53;;
33162;SDS011;29282;45.656;11.302;2023-03-31T02:51:52;4.43;;;3.20;;
33162;SDS011;29282;45.656;11.302;2023-03-31T03:02:39;3.78;;;3.35;;
33162;SDS011;29282;45.656;11.302;2023-03-31T03:13:58;5.85;;;3.55;;
33162;SDS011;29282;45.656;11.302;2023-03-31T03:16:28;3.55;;;3.25;;
33162;SDS011;29282;45.656;11.302;2023-03-31T03:19:05;3.97;;;3.50;;
33162;SDS011;29282;45.656;11.302;2023-03-31T03:21:31;4.30;;;3.15;;
33162;SDS011;29282;45.656;11.302;2023-03-31T03:23:57;6.78;;;3.83;;
33162;SDS011;29282;45.656;11.302;2023-03-31T03:26:24;4.20;;;3.53;;
33162;SDS011;29282;45.656;11.302;2023-03-31T03:28:52;4.00;;;3.40;;
33162;SDS011;29282;45.656;11.302;2023-03-31T03:31:19;4.22;;;3.33;;
33162;SDS011;29282;45.656;11.302;2023-03-31T03:33:48;4.43;;;3.55;;
33162;SDS011;29282;45.656;11.302;2023-03-31T03:36:14;5.80;;;3.78;;
33162;SDS011;29282;45.656;11.302;2023-03-31T03:38:40;4.88;;;3.55;;
33162;SDS011;29282;45.656;11.302;2023-03-31T03:41:06;4.82;;;3.50;;
33162;SDS011;29282;45.656;11.302;2023-03-31T03:43:32;5.20;;;3.63;;
33162;SDS011;29282;45.656;11.302;2023-03-31T03:45:57;3.42;;;3.13;;
33162;SDS011;29282;45.656;11.302;2023-03-31T03:48:23;6.72;;;3.78;;
33162;SDS011;29282;45.656;11.302;2023-03-31T03:50:48;3.95;;;3.00;;
33162;SDS011;29282;45.656;11.302;2023-03-31T03:53:15;4.22;;;3.50;;
33162;SDS011;29282;45.656;11.302;2023-03-31T03:55:40;3.55;;;3.20;;
33162;SDS011;29282;45.656;11.302;2023-03-31T03:58:06;4.18;;;3.40;;
33162;SDS011;29282;45.656;11.302;2023-03-31T04:00:31;3.35;;;3.05;;
33162;SDS011;29282;45.656;11.302;2023-03-31T04:02:57;4.32;;;3.50;;
33162;SDS011;29282;45.656;11.302;2023-03-31T04:05:23;4.80;;;3.38;;
33162;SDS011;29282;45.656;11.302;2023-03-31T04:07:48;4.20;;;3.10;;
33162;SDS011;29282;45.656;11.302;2023-03-31T04:10:14;4.22;;;3.47;;
33162;SDS011;29282;45.656;11.302;2023-03-31T04:12:39;4.60;;;3.38;;
33162;SDS011;29282;45.656;11.302;2023-03-31T04:15:05;4.05;;;3.47;;
33162;SDS011;29282;45.656;11.302;2023-03-31T04:17:31;6.65;;;3.40;;
33162;SDS011;29282;45.656;11.302;2023-03-31T04:20:04;5.30;;;3.85;;
33162;SDS011;29282;45.656;11.302;2023-03-31T04:22:34;5.40;;;3.22;;
33162;SDS011;29282;45.656;11.302;2023-03-31T04:25:05;4.95;;;3.60;;
33162;SDS011;29282;45.656;11.302;2023-03-31T04:27:38;3.95;;;3.53;;
33162;SDS011;29282;45.656;11.302;2023-03-31T04:30:23;4.47;;;3.60;;
33162;SDS011;29282;45.656;11.302;2023-03-31T04:32:55;5.07;;;3.25;;
33162;SDS011;29282;45.656;11.302;2023-03-31T04:35:27;7.63;;;3.50;;
33162;SDS011;29282;45.656;11.302;2023-03-31T04:38:16;5.63;;;3.50;;
33162;SDS011;29282;45.656;11.302;2023-03-31T04:40:47;8.48;;;4.28;;
33162;SDS011;29282;45.656;11.302;2023-03-31T04:43:14;11.18;;;4.63;;
33162;SDS011;29282;45.656;11.302;2023-03-31T04:45:41;6.20;;;3.97;;
33162;SDS011;29282;45.656;11.302;2023-03-31T04:48:07;9.10;;;4.10;;
33162;SDS011;29282;45.656;11.302;2023-03-31T04:50:34;7.75;;;4.13;;
33162;SDS011;29282;45.656;11.302;2023-03-31T04:53:00;9.95;;;3.65;;
33162;SDS011;29282;45.656;11.302;2023-03-31T04:55:26;6.13;;;3.70;;
33162;SDS011;29282;45.656;11.302;2023-03-31T04:57:52;6.05;;;4.00;;
33162;SDS011;29282;45.656;11.302;2023-03-31T05:00:18;8.07;;;4.03;;
33162;SDS011;29282;45.656;11.302;2023-03-31T05:02:44;12.57;;;4.32;;
33162;SDS011;29282;45.656;11.302;2023-03-31T05:05:10;5.82;;;4.10;;
33162;SDS011;29282;45.656;11.302;2023-03-31T05:07:36;8.45;;;4.15;;
33162;SDS011;29282;45.656;11.302;2023-03-31T05:10:02;7.28;;;4.03;;
33162;SDS011;29282;45.656;11.302;2023-03-31T05:12:29;7.82;;;4.15;;
33162;SDS011;29282;45.656;11.302;2023-03-31T05:14:59;6.53;;;4.20;;
33162;SDS011;29282;45.656;11.302;2023-03-31T05:17:24;8.85;;;3.90;;
33162;SDS011;29282;45.656;11.302;2023-03-31T05:19:50;5.30;;;3.53;;
33162;SDS011;29282;45.656;11.302;2023-03-31T05:22:15;4.65;;;3.70;;
33162;SDS011;29282;45.656;11.302;2023-03-31T05:24:44;6.50;;;4.22;;
33162;SDS011;29282;45.656;11.302;2023-03-31T05:27:10;7.00;;;3.75;;
33162;SDS011;29282;45.656;11.302;2023-03-31T05:29:36;7.35;;;3.72;;
33162;SDS011;29282;45.656;11.302;2023-03-31T05:32:01;6.22;;;3.60;;
33162;SDS011;29282;45.656;11.302;2023-03-31T05:34:27;7.68;;;4.00;;
33162;SDS011;29282;45.656;11.302;2023-03-31T05:36:52;7.80;;;4.03;;
33162;SDS011;29282;45.656;11.302;2023-03-31T05:39:18;6.45;;;3.75;;
33162;SDS011;29282;45.656;11.302;2023-03-31T05:41:45;5.45;;;3.45;;
33162;SDS011;29282;45.656;11.302;2023-03-31T05:44:10;4.20;;;3.15;;
33162;SDS011;29282;45.656;11.302;2023-03-31T05:46:36;6.05;;;3.78;;
33162;SDS011;29282;45.656;11.302;2023-03-31T05:49:02;5.95;;;3.45;;
33162;SDS011;29282;45.656;11.302;2023-03-31T05:51:27;4.13;;;3.50;;
33162;SDS011;29282;45.656;11.302;2023-03-31T05:53:53;6.25;;;3.60;;
33162;SDS011;29282;45.656;11.302;2023-03-31T05:56:18;5.57;;;3.50;;
33162;SDS011;29282;45.656;11.302;2023-03-31T05:58:44;6.85;;;3.90;;
33162;SDS011;29282;45.656;11.302;2023-03-31T06:01:11;6.20;;;3.70;;
33162;SDS011;29282;45.656;11.302;2023-03-31T06:03:39;8.52;;;4.20;;
33162;SDS011;29282;45.656;11.302;2023-03-31T06:06:05;10.05;;;3.65;;
33162;SDS011;29282;45.656;11.302;2023-03-31T06:08:33;6.80;;;3.50;;
33162;SDS011;29282;45.656;11.302;2023-03-31T06:11:05;5.85;;;3.97;;
33162;SDS011;29282;45.656;11.302;2023-03-31T06:13:33;6.97;;;4.18;;
33162;SDS011;29282;45.656;11.302;2023-03-31T06:15:59;4.90;;;3.47;;
33162;SDS011;29282;45.656;11.302;2023-03-31T06:18:26;8.23;;;4.00;;
33162;SDS011;29282;45.656;11.302;2023-03-31T06:20:53;9.07;;;3.97;;
33162;SDS011;29282;45.656;11.302;2023-03-31T06:23:20;5.93;;;3.55;;
33162;SDS011;29282;45.656;11.302;2023-03-31T06:25:46;7.97;;;3.60;;
33162;SDS011;29282;45.656;11.302;2023-03-31T06:28:12;5.75;;;3.80;;
33162;SDS011;29282;45.656;11.302;2023-03-31T06:30:37;9.23;;;3.92;;
33162;SDS011;29282;45.656;11.302;2023-03-31T06:33:03;6.18;;;3.65;;
33162;SDS011;29282;45.656;11.302;2023-03-31T06:35:28;5.80;;;3.42;;
33162;SDS011;29282;45.656;11.302;2023-03-31T06:37:54;7.35;;;3.90;;
33162;SDS011;29282;45.656;11.302;2023-03-31T06:40:19;5.97;;;3.70;;
33162;SDS011;29282;45.656;11.302;2023-03-31T06:42:45;8.02;;;4.13;;
33162;SDS011;29282;45.656;11.302;2023-03-31T06:45:11;6.78;;;3.70;;
33162;SDS011;29282;45.656;11.302;2023-03-31T06:47:36;8.02;;;3.75;;
33162;SDS011;29282;45.656;11.302;2023-03-31T06:50:03;6.57;;;4.05;;
33162;SDS011;29282;45.656;11.302;2023-03-31T06:52:30;9.48;;;3.65;;
33162;SDS011;29282;45.656;11.302;2023-03-31T06:54:56;15.68;;;4.10;;
33162;SDS011;29282;45.656;11.302;2023-03-31T06:57:21;17.90;;;4.10;;
33162;SDS011;29282;45.656;11.302;2023-03-31T06:59:47;20.85;;;4.45;;
33162;SDS011;29282;45.656;11.302;2023-03-31T07:02:12;12.95;;;4.10;;
33162;SDS011;29282;45.656;11.302;2023-03-31T07:04:38;10.60;;;4.57;;
33162;SDS011;29282;45.656;11.302;2023-03-31T07:07:03;11.88;;;4.20;;
33162;SDS011;29282;45.656;11.302;2023-03-31T07:09:29;10.80;;;4.00;;
33162;SDS011;29282;45.656;11.302;2023-03-31T07:11:55;8.75;;;3.75;;
33162;SDS011;29282;45.656;11.302;2023-03-31T07:14:20;13.20;;;4.00;;
33162;SDS011;29282;45.656;11.302;2023-03-31T07:16:46;9.77;;;4.55;;
33162;SDS011;29282;45.656;11.302;2023-03-31T07:19:12;14.65;;;4.38;;
33162;SDS011;29282;45.656;11.302;2023-03-31T07:21:39;12.15;;;4.47;;
33162;SDS011;29282;45.656;11.302;2023-03-31T07:24:05;6.88;;;3.97;;
33162;SDS011;29282;45.656;11.302;2023-03-31T07:26:30;8.43;;;3.80;;
33162;SDS011;29282;45.656;11.302;2023-03-31T07:28:56;8.23;;;3.90;;
33162;SDS011;29282;45.656;11.302;2023-03-31T07:31:22;6.47;;;3.88;;
33162;SDS011;29282;45.656;11.302;2023-03-31T07:33:48;6.70;;;3.83;;
33162;SDS011;29282;45.656;11.302;2023-03-31T07:36:13;12.43;;;4.30;;
33162;SDS011;29282;45.656;11.302;2023-03-31T07:38:40;5.45;;;3.78;;
33162;SDS011;29282;45.656;11.302;2023-03-31T07:41:14;6.53;;;4.20;;
33162;SDS011;29282;45.656;11.302;2023-03-31T07:43:42;11.75;;;4.63;;
33162;SDS011;29282;45.656;11.302;2023-03-31T07:46:18;7.20;;;3.83;;
33162;SDS011;29282;45.656;11.302;2023-03-31T07:48:46;7.88;;;4.05;;
33162;SDS011;29282;45.656;11.302;2023-03-31T07:51:13;7.90;;;4.10;;
33162;SDS011;29282;45.656;11.302;2023-03-31T07:53:40;7.72;;;4.72;;
33162;SDS011;29282;45.656;11.302;2023-03-31T07:56:05;6.93;;;3.85;;
33162;SDS011;29282;45.656;11.302;2023-03-31T07:58:31;8.05;;;3.88;;
33162;SDS011;29282;45.656;11.302;2023-03-31T08:00:56;5.03;;;3.80;;
33162;SDS011;29282;45.656;11.302;2023-03-31T08:03:22;6.22;;;4.18;;
33162;SDS011;29282;45.656;11.302;2023-03-31T08:05:50;5.65;;;3.83;;
33162;SDS011;29282;45.656;11.302;2023-03-31T08:08:16;5.47;;;4.15;;
33162;SDS011;29282;45.656;11.302;2023-03-31T08:10:42;6.53;;;4.40;;
33162;SDS011;29282;45.656;11.302;2023-03-31T08:13:07;9.57;;;3.63;;
33162;SDS011;29282;45.656;11.302;2023-03-31T08:15:33;11.68;;;4.13;;
33162;SDS011;29282;45.656;11.302;2023-03-31T08:17:58;4.13;;;3.67;;
33162;SDS011;29282;45.656;11.302;2023-03-31T08:20:24;8.35;;;3.67;;
33162;SDS011;29282;45.656;11.302;2023-03-31T08:22:49;5.60;;;3.63;;
33162;SDS011;29282;45.656;11.302;2023-03-31T08:25:15;6.32;;;3.65;;
33162;SDS011;29282;45.656;11.302;2023-03-31T08:27:41;6.40;;;4.10;;
33162;SDS011;29282;45.656;11.302;2023-03-31T08:30:07;7.43;;;4.13;;
33162;SDS011;29282;45.656;11.302;2023-03-31T08:32:34;6.35;;;3.42;;
33162;SDS011;29282;45.656;11.302;2023-03-31T08:35:00;9.20;;;3.55;;
33162;SDS011;29282;45.656;11.302;2023-03-31T08:37:26;8.55;;;3.88;;
33162;SDS011;29282;45.656;11.302;2023-03-31T08:39:53;7.03;;;3.88;;
33162;SDS011;29282;45.656;11.302;2023-03-31T08:42:40;5.43;;;3.85;;
33162;SDS011;29282;45.656;11.302;2023-03-31T08:45:16;4.63;;;4.10;;
33162;SDS011;29282;45.656;11.302;2023-03-31T08:47:54;7.53;;;3.47;;
33162;SDS011;29282;45.656;11.302;2023-03-31T08:50:26;5.45;;;3.70;;
33162;SDS011;29282;45.656;11.302;2023-03-31T08:55:51;5.63;;;3.88;;
33162;SDS011;29282;45.656;11.302;2023-03-31T09:06:16;4.20;;;3.50;;
33162;SDS011;29282;45.656;11.302;2023-03-31T09:09:00;8.32;;;4.35;;
33162;SDS011;29282;45.656;11.302;2023-03-31T09:25:53;5.20;;;3.45;;
33162;SDS011;29282;45.656;11.302;2023-03-31T09:28:27;4.85;;;3.53;;
33162;SDS011;29282;45.656;11.302;2023-03-31T09:30:57;5.93;;;4.03;;
33162;SDS011;29282;45.656;11.302;2023-03-31T09:38:23;6.90;;;4.00;;
33162;SDS011;29282;45.656;11.302;2023-03-31T09:40:53;4.32;;;3.45;;
33162;SDS011;29282;45.656;11.302;2023-03-31T09:43:23;6.68;;;3.70;;
33162;SDS011;29282;45.656;11.302;2023-03-31T09:45:51;4.38;;;3.38;;
33162;SDS011;29282;45.656;11.302;2023-03-31T09:48:18;4.88;;;4.13;;
33162;SDS011;29282;45.656;11.302;2023-03-31T09:50:58;6.13;;;3.92;;
33162;SDS011;29282;45.656;11.302;2023-03-31T09:53:46;5.55;;;3.75;;
33162;SDS011;29282;45.656;11.302;2023-03-31T09:59:12;5.18;;;3.63;;
33162;SDS011;29282;45.656;11.302;2023-03-31T10:01:46;5.00;;;3.50;;
33162;SDS011;29282;45.656;11.302;2023-03-31T10:04:24;5.60;;;3.60;;
33162;SDS011;29282;45.656;11.302;2023-03-31T10:06:52;6.10;;;4.10;;
33162;SDS011;29282;45.656;11.302;2023-03-31T10:09:20;4.40;;;3.97;;
33162;SDS011;29282;45.656;11.302;2023-03-31T10:11:54;4.47;;;3.40;;
33162;SDS011;29282;45.656;11.302;2023-03-31T10:14:40;5.00;;;3.65;;
33162;SDS011;29282;45.656;11.302;2023-03-31T10:17:12;5.43;;;3.70;;
33162;SDS011;29282;45.656;11.302;2023-03-31T10:19:46;4.13;;;3.67;;
33162;SDS011;29282;45.656;11.302;2023-03-31T10:24:49;4.15;;;3.50;;
33162;SDS011;29282;45.656;11.302;2023-03-31T10:29:55;4.93;;;4.00;;
33162;SDS011;29282;45.656;11.302;2023-03-31T10:32:28;4.78;;;3.28;;
33162;SDS011;29282;45.656;11.302;2023-03-31T10:34:56;4.78;;;3.70;;
33162;SDS011;29282;45.656;11.302;2023-03-31T10:37:26;4.72;;;3.55;;
33162;SDS011;29282;45.656;11.302;2023-03-31T10:40:36;4.85;;;3.42;;
33162;SDS011;29282;45.656;11.302;2023-03-31T11:01:38;3.97;;;3.20;;
33162;SDS011;29282;45.656;11.302;2023-03-31T11:06:48;10.27;;;3.70;;
33162;SDS011;29282;45.656;11.302;2023-03-31T11:12:00;11.80;;;4.95;;
33162;SDS011;29282;45.656;11.302;2023-03-31T11:20:26;7.40;;;4.20;;
33162;SDS011;29282;45.656;11.302;2023-03-31T11:25:51;8.23;;;4.07;;
33162;SDS011;29282;45.656;11.302;2023-03-31T11:33:51;8.00;;;4.15;;
33162;SDS011;29282;45.656;11.302;2023-03-31T11:42:14;7.20;;;3.63;;
33162;SDS011;29282;45.656;11.302;2023-03-31T11:44:48;5.40;;;3.60;;
33162;SDS011;29282;45.656;11.302;2023-03-31T11:52:18;6.35;;;3.55;;
33162;SDS011;29282;45.656;11.302;2023-03-31T11:57:31;6.43;;;3.58;;
33162;SDS011;29282;45.656;11.302;2023-03-31T12:00:08;9.50;;;3.90;;
33162;SDS011;29282;45.656;11.302;2023-03-31T12:02:44;6.60;;;3.60;;
33162;SDS011;29282;45.656;11.302;2023-03-31T12:05:20;6.15;;;3.78;;
33162;SDS011;29282;45.656;11.302;2023-03-31T12:08:03;6.80;;;4.00;;
33162;SDS011;29282;45.656;11.302;2023-03-31T12:15:33;4.57;;;3.90;;
33162;SDS011;29282;45.656;11.302;2023-03-31T12:18:14;5.68;;;3.67;;
33162;SDS011;29282;45.656;11.302;2023-03-31T12:20:48;5.60;;;3.83;;
33162;SDS011;29282;45.656;11.302;2023-03-31T12:23:18;12.05;;;4.82;;
33162;SDS011;29282;45.656;11.302;2023-03-31T12:28:35;8.13;;;3.85;;
33162;SDS011;29282;45.656;11.302;2023-03-31T12:31:05;8.98;;;4.03;;
33162;SDS011;29282;45.656;11.302;2023-03-31T12:33:42;6.72;;;4.22;;
33162;SDS011;29282;45.656;11.302;2023-03-31T12:44:28;6.63;;;2.97;;
33162;SDS011;29282;45.656;11.302;2023-03-31T12:47:19;7.22;;;3.92;;
33162;SDS011;29282;45.656;11.302;2023-03-31T12:52:40;5.80;;;3.60;;
33162;SDS011;29282;45.656;11.302;2023-03-31T12:55:40;5.80;;;4.07;;
33162;SDS011;29282;45.656;11.302;2023-03-31T13:01:08;4.80;;;3.35;;
33162;SDS011;29282;45.656;11.302;2023-03-31T13:03:46;6.32;;;3.33;;
33162;SDS011;29282;45.656;11.302;2023-03-31T13:08:54;5.97;;;3.58;;
33162;SDS011;29282;45.656;11.302;2023-03-31T13:13:58;4.40;;;3.25;;
33162;SDS011;29282;45.656;11.302;2023-03-31T13:16:26;5.22;;;3.20;;
33162;SDS011;29282;45.656;11.302;2023-03-31T13:18:53;5.03;;;3.15;;
33162;SDS011;29282;45.656;11.302;2023-03-31T13:21:20;4.25;;;3.47;;
33162;SDS011;29282;45.656;11.302;2023-03-31T13:23:46;4.05;;;3.38;;
33162;SDS011;29282;45.656;11.302;2023-03-31T13:29:40;4.80;;;3.40;;
33162;SDS011;29282;45.656;11.302;2023-03-31T13:34:26;3.67;;;3.10;;
33162;SDS011;29282;45.656;11.302;2023-03-31T13:45:25;5.00;;;3.08;;
33162;SDS011;29282;45.656;11.302;2023-03-31T14:08:18;4.18;;;2.53;;
33162;SDS011;29282;45.656;11.302;2023-03-31T14:10:54;3.50;;;2.60;;
33162;SDS011;29282;45.656;11.302;2023-03-31T14:13:58;3.78;;;2.80;;
33162;SDS011;29282;45.656;11.302;2023-03-31T14:17:17;4.32;;;2.50;;
33162;SDS011;29282;45.656;11.302;2023-03-31T14:25:12;3.13;;;2.70;;
33162;SDS011;29282;45.656;11.302;2023-03-31T14:36:53;3.33;;;2.63;;
33162;SDS011;29282;45.656;11.302;2023-03-31T14:39:35;4.45;;;2.35;;
33162;SDS011;29282;45.656;11.302;2023-03-31T14:42:09;3.50;;;2.50;;
33162;SDS011;29282;45.656;11.302;2023-03-31T14:44:41;3.35;;;2.53;;
33162;SDS011;29282;45.656;11.302;2023-03-31T14:50:10;3.60;;;2.35;;
33162;SDS011;29282;45.656;11.302;2023-03-31T14:52:42;3.53;;;2.67;;
33162;SDS011;29282;45.656;11.302;2023-03-31T14:55:15;3.42;;;2.50;;
33162;SDS011;29282;45.656;11.302;2023-03-31T14:57:42;3.47;;;2.53;;
33162;SDS011;29282;45.656;11.302;2023-03-31T15:00:15;3.92;;;2.55;;
33162;SDS011;29282;45.656;11.302;2023-03-31T15:02:46;2.40;;;2.15;;
33162;SDS011;29282;45.656;11.302;2023-03-31T15:05:18;2.75;;;2.40;;
33162;SDS011;29282;45.656;11.302;2023-03-31T15:07:50;5.30;;;2.20;;
33162;SDS011;29282;45.656;11.302;2023-03-31T15:10:19;4.00;;;2.45;;
33162;SDS011;29282;45.656;11.302;2023-03-31T15:12:46;2.88;;;2.40;;
33162;SDS011;29282;45.656;11.302;2023-03-31T15:15:14;4.28;;;2.40;;
33162;SDS011;29282;45.656;11.302;2023-03-31T15:17:42;4.00;;;2.17;;
33162;SDS011;29282;45.656;11.302;2023-03-31T15:20:25;4.05;;;2.10;;
33162;SDS011;29282;45.656;11.302;2023-03-31T15:22:57;2.92;;;2.20;;
33162;SDS011;29282;45.656;11.302;2023-03-31T15:25:25;2.47;;;2.10;;
33162;SDS011;29282;45.656;11.302;2023-03-31T15:27:54;2.92;;;2.10;;
33162;SDS011;29282;45.656;11.302;2023-03-31T15:30:26;3.97;;;2.40;;
33162;SDS011;29282;45.656;11.302;2023-03-31T15:32:53;4.03;;;2.22;;
33162;SDS011;29282;45.656;11.302;2023-03-31T15:35:29;3.30;;;2.47;;
33162;SDS011;29282;45.656;11.302;2023-03-31T15:37:58;2.85;;;2.15;;
33162;SDS011;29282;45.656;11.302;2023-03-31T15:53:56;4.05;;;3.30;;
33162;SDS011;29282;45.656;11.302;2023-03-31T15:56:02;7.55;;;2.88;;
33162;SDS011;29282;45.656;11.302;2023-03-31T16:01:20;4.75;;;3.35;;
33162;SDS011;29282;45.656;11.302;2023-03-31T16:03:47;4.03;;;3.03;;
33162;SDS011;29282;45.656;11.302;2023-03-31T16:06:21;8.00;;;3.42;;
33162;SDS011;29282;45.656;11.302;2023-03-31T16:09:01;3.83;;;2.78;;
33162;SDS011;29282;45.656;11.302;2023-03-31T16:14:30;5.75;;;2.78;;
33162;SDS011;29282;45.656;11.302;2023-03-31T16:17:03;4.28;;;2.97;;
33162;SDS011;29282;45.656;11.302;2023-03-31T16:19:38;5.85;;;3.13;;
33162;SDS011;29282;45.656;11.302;2023-03-31T16:22:06;8.23;;;3.10;;
33162;SDS011;29282;45.656;11.302;2023-03-31T16:27:07;5.30;;;3.33;;
33162;SDS011;29282;45.656;11.302;2023-03-31T16:29:33;4.50;;;2.90;;
33162;SDS011;29282;45.656;11.302;2023-03-31T16:32:08;4.50;;;2.72;;
33162;SDS011;29282;45.656;11.302;2023-03-31T16:37:25;5.38;;;3.00;;
33162;SDS011;29282;45.656;11.302;2023-03-31T16:39:51;4.43;;;3.10;;
33162;SDS011;29282;45.656;11.302;2023-03-31T16:42:17;3.88;;;3.28;;
33162;SDS011;29282;45.656;11.302;2023-03-31T16:44:43;3.72;;;3.13;;
33162;SDS011;29282;45.656;11.302;2023-03-31T16:47:10;4.60;;;3.05;;
33162;SDS011;29282;45.656;11.302;2023-03-31T16:49:36;15.00;;;3.65;;
33162;SDS011;29282;45.656;11.302;2023-03-31T16:52:02;7.07;;;3.05;;
33162;SDS011;29282;45.656;11.302;2023-03-31T16:54:29;17.10;;;3.70;;
33162;SDS011;29282;45.656;11.302;2023-03-31T16:56:55;7.28;;;4.00;;
33162;SDS011;29282;45.656;11.302;2023-03-31T16:59:21;10.27;;;3.45;;
33162;SDS011;29282;45.656;11.302;2023-03-31T17:01:47;5.68;;;3.63;;
33162;SDS011;29282;45.656;11.302;2023-03-31T17:04:13;9.02;;;3.63;;
33162;SDS011;29282;45.656;11.302;2023-03-31T17:06:38;10.35;;;4.15;;
33162;SDS011;29282;45.656;11.302;2023-03-31T17:09:04;15.77;;;3.88;;
33162;SDS011;29282;45.656;11.302;2023-03-31T17:11:30;25.40;;;3.60;;
33162;SDS011;29282;45.656;11.302;2023-03-31T17:13:56;13.15;;;3.92;;
33162;SDS011;29282;45.656;11.302;2023-03-31T17:16:24;9.25;;;3.47;;
33162;SDS011;29282;45.656;11.302;2023-03-31T17:18:49;13.90;;;3.72;;
33162;SDS011;29282;45.656;11.302;2023-03-31T17:21:16;16.88;;;3.60;;
33162;SDS011;29282;45.656;11.302;2023-03-31T17:23:43;8.77;;;3.58;;
33162;SDS011;29282;45.656;11.302;2023-03-31T17:26:08;12.00;;;4.13;;
33162;SDS011;29282;45.656;11.302;2023-03-31T17:28:36;6.97;;;3.88;;
33162;SDS011;29282;45.656;11.302;2023-03-31T17:31:09;6.82;;;3.40;;
33162;SDS011;29282;45.656;11.302;2023-03-31T17:33:39;9.23;;;4.28;;
33162;SDS011;29282;45.656;11.302;2023-03-31T17:36:05;9.32;;;4.28;;
33162;SDS011;29282;45.656;11.302;2023-03-31T17:38:31;6.68;;;3.72;;
33162;SDS011;29282;45.656;11.302;2023-03-31T17:41:03;17.80;;;3.75;;
33162;SDS011;29282;45.656;11.302;2023-03-31T17:45:18;7.72;;;3.70;;
33162;SDS011;29282;45.656;11.302;2023-03-31T17:47:43;10.65;;;3.70;;
33162;SDS011;29282;45.656;11.302;2023-03-31T17:50:10;6.95;;;3.58;;
33162;SDS011;29282;45.656;11.302;2023-03-31T17:52:36;7.63;;;3.80;;
33162;SDS011;29282;45.656;11.302;2023-03-31T17:55:03;10.45;;;4.20;;
33162;SDS011;29282;45.656;11.302;2023-03-31T17:57:30;12.63;;;4.60;;
33162;SDS011;29282;45.656;11.302;2023-03-31T17:59:56;5.70;;;3.90;;
33162;SDS011;29282;45.656;11.302;2023-03-31T18:02:24;4.95;;;3.58;;
33162;SDS011;29282;45.656;11.302;2023-03-31T18:04:53;7.68;;;4.22;;
33162;SDS011;29282;45.656;11.302;2023-03-31T18:07:19;8.48;;;3.92;;
33162;SDS011;29282;45.656;11.302;2023-03-31T18:09:48;5.93;;;4.15;;
33162;SDS011;29282;45.656;11.302;2023-03-31T18:12:17;9.35;;;3.80;;
33162;SDS011;29282;45.656;11.302;2023-03-31T18:14:48;7.05;;;3.53;;
33162;SDS011;29282;45.656;11.302;2023-03-31T18:17:16;7.28;;;3.70;;
33162;SDS011;29282;45.656;11.302;2023-03-31T18:19:45;7.53;;;4.15;;
33162;SDS011;29282;45.656;11.302;2023-03-31T18:22:13;8.00;;;4.07;;
33162;SDS011;29282;45.656;11.302;2023-03-31T18:24:40;6.35;;;3.67;;
33162;SDS011;29282;45.656;11.302;2023-03-31T18:27:06;8.15;;;3.72;;
33162;SDS011;29282;45.656;11.302;2023-03-31T18:29:32;9.70;;;3.78;;
33162;SDS011;29282;45.656;11.302;2023-03-31T18:31:59;8.82;;;3.63;;
33162;SDS011;29282;45.656;11.302;2023-03-31T18:34:26;6.28;;;3.85;;
33162;SDS011;29282;45.656;11.302;2023-03-31T18:36:55;7.97;;;4.10;;
33162;SDS011;29282;45.656;11.302;2023-03-31T18:39:24;10.23;;;3.97;;
33162;SDS011;29282;45.656;11.302;2023-03-31T18:41:52;6.88;;;3.85;;
33162;SDS011;29282;45.656;11.302;2023-03-31T18:44:19;5.57;;;3.78;;
33162;SDS011;29282;45.656;11.302;2023-03-31T18:46:49;7.18;;;3.75;;
33162;SDS011;29282;45.656;11.302;2023-03-31T18:49:17;8.45;;;4.07;;
33162;SDS011;29282;45.656;11.302;2023-03-31T18:51:44;8.13;;;3.83;;
33162;SDS011;29282;45.656;11.302;2023-03-31T18:54:12;4.60;;;3.70;;